createdAt,value
2022-11-09T00:00:41.800Z,2.97
2022-11-09T00:03:09.105Z,2.22
2022-11-09T00:05:36.307Z,2.28
2022-11-09T00:08:06.129Z,2.90
2022-11-09T00:10:33.651Z,2.35
2022-11-09T00:13:01.046Z,2.28
2022-11-09T00:15:28.449Z,2.40
2022-11-09T00:17:55.718Z,2.50
2022-11-09T00:20:22.904Z,2.50
2022-11-09T00:22:50.740Z,2.35
2022-11-09T00:25:18.072Z,2.40
2022-11-09T00:27:45.208Z,2.08
2022-11-09T00:30:12.544Z,3.85
2022-11-09T00:32:39.838Z,2.20
2022-11-09T00:35:07.196Z,2.63
2022-11-09T00:37:34.436Z,2.28
2022-11-09T00:40:01.775Z,2.50
2022-11-09T00:42:28.913Z,2.33
2022-11-09T00:44:56.073Z,2.47
2022-11-09T00:47:23.295Z,2.70
2022-11-09T00:49:50.434Z,2.90
2022-11-09T00:52:17.621Z,2.30
2022-11-09T00:54:44.780Z,2.60
2022-11-09T00:57:13.383Z,2.38
2022-11-09T00:59:40.678Z,2.78
2022-11-09T01:02:07.821Z,2.72
2022-11-09T01:04:35.133Z,2.47
2022-11-09T01:07:02.508Z,2.15
2022-11-09T01:09:29.769Z,2.28
2022-11-09T01:11:56.958Z,2.53
2022-11-09T01:14:24.514Z,2.60
2022-11-09T01:16:51.878Z,2.53
2022-11-09T01:19:19.043Z,3.00
2022-11-09T01:21:46.218Z,1.90
2022-11-09T01:24:13.586Z,2.28
2022-11-09T01:26:40.716Z,2.38
2022-11-09T01:29:07.910Z,3.08
2022-11-09T01:31:35.183Z,2.40
2022-11-09T01:34:02.466Z,2.83
2022-11-09T01:36:30.049Z,3.53
2022-11-09T01:38:57.299Z,2.53
2022-11-09T01:41:25.887Z,2.88
2022-11-09T01:44:13.315Z,2.22
2022-11-09T01:46:46.582Z,2.30
2022-11-09T01:49:16.856Z,2.40
2022-11-09T01:51:47.500Z,2.33
2022-11-09T01:54:26.882Z,2.50
2022-11-09T01:56:55.625Z,2.30
2022-11-09T01:59:30.310Z,2.90
2022-11-09T02:01:57.668Z,2.08
2022-11-09T02:04:27.645Z,2.05
2022-11-09T02:06:56.276Z,2.38
2022-11-09T02:09:23.407Z,2.80
2022-11-09T02:11:50.619Z,2.03
2022-11-09T02:14:19.509Z,3.72
2022-11-09T02:16:47.454Z,2.33
2022-11-09T02:19:14.686Z,2.00
2022-11-09T02:21:42.024Z,2.45
2022-11-09T02:24:11.742Z,1.77
2022-11-09T02:26:46.415Z,2.28
2022-11-09T02:29:15.012Z,2.30
2022-11-09T02:31:46.984Z,2.15
2022-11-09T02:34:17.199Z,2.45
2022-11-09T02:36:44.533Z,2.30
2022-11-09T02:39:12.391Z,2.35
2022-11-09T02:41:43.888Z,2.60
2022-11-09T02:44:11.348Z,2.50
2022-11-09T02:46:38.547Z,2.40
2022-11-09T02:49:05.714Z,2.15
2022-11-09T02:51:32.889Z,2.22
2022-11-09T02:54:00.200Z,2.70
2022-11-09T02:56:27.327Z,2.17
2022-11-09T02:58:54.636Z,2.25
2022-11-09T03:01:21.920Z,2.30
2022-11-09T03:03:49.132Z,2.63
2022-11-09T03:06:16.529Z,2.45
2022-11-09T03:08:43.695Z,2.22
2022-11-09T03:11:10.849Z,2.33
2022-11-09T03:13:38.015Z,2.35
2022-11-09T03:16:06.340Z,2.15
2022-11-09T03:18:33.587Z,2.22
2022-11-09T03:21:05.023Z,2.55
2022-11-09T03:23:32.387Z,2.28
2022-11-09T03:25:59.630Z,2.30
2022-11-09T03:28:26.774Z,2.40
2022-11-09T03:30:53.951Z,2.33
2022-11-09T03:33:21.384Z,2.83
2022-11-09T03:35:49.067Z,1.98
2022-11-09T03:38:16.414Z,2.83
2022-11-09T03:40:43.611Z,1.88
2022-11-09T03:43:10.794Z,2.65
2022-11-09T03:45:38.007Z,3.70
2022-11-09T03:48:05.391Z,2.05
2022-11-09T03:50:34.132Z,1.90
2022-11-09T03:53:02.061Z,2.75
2022-11-09T03:55:29.507Z,2.83
2022-11-09T03:57:56.665Z,2.40
2022-11-09T04:00:24.308Z,3.40
2022-11-09T04:02:51.702Z,2.10
2022-11-09T04:05:18.946Z,1.92
2022-11-09T04:07:53.235Z,2.50
2022-11-09T04:10:20.910Z,2.53
2022-11-09T04:12:48.100Z,1.92
2022-11-09T04:15:15.310Z,2.35
2022-11-09T04:17:44.671Z,2.70
2022-11-09T04:20:12.174Z,2.50
2022-11-09T04:22:39.430Z,2.38
2022-11-09T04:25:06.862Z,2.60
2022-11-09T04:27:34.021Z,2.38
2022-11-09T04:30:01.199Z,2.28
2022-11-09T04:32:28.406Z,2.92
2022-11-09T04:34:55.631Z,2.70
2022-11-09T04:37:22.795Z,3.13
2022-11-09T04:39:49.946Z,3.38
2022-11-09T04:42:17.131Z,3.17
2022-11-09T04:44:44.332Z,2.58
2022-11-09T04:47:11.473Z,2.17
2022-11-09T04:49:38.622Z,1.92
2022-11-09T04:52:05.815Z,3.00
2022-11-09T04:54:32.975Z,2.30
2022-11-09T04:57:00.099Z,2.97
2022-11-09T04:59:27.231Z,2.50
2022-11-09T05:01:54.400Z,2.35
2022-11-09T05:04:21.593Z,2.38
2022-11-09T05:06:48.794Z,2.30
2022-11-09T05:09:16.033Z,2.75
2022-11-09T05:11:43.175Z,2.55
2022-11-09T05:14:10.303Z,2.60
2022-11-09T05:16:37.464Z,2.40
2022-11-09T05:19:04.820Z,2.53
2022-11-09T05:21:32.068Z,2.33
2022-11-09T05:23:59.279Z,2.17
2022-11-09T05:26:27.306Z,2.30
2022-11-09T05:28:54.989Z,2.85
2022-11-09T05:31:22.329Z,2.95
2022-11-09T05:33:52.508Z,2.55
2022-11-09T05:36:19.806Z,2.95
2022-11-09T05:38:47.299Z,2.60
2022-11-09T05:41:14.499Z,2.65
2022-11-09T05:43:41.860Z,2.50
2022-11-09T05:46:09.236Z,2.78
2022-11-09T05:48:36.392Z,2.22
2022-11-09T05:51:04.352Z,2.90
2022-11-09T05:53:31.899Z,2.42
2022-11-09T05:56:17.168Z,3.50
2022-11-09T05:58:44.569Z,2.50
2022-11-09T06:01:15.970Z,2.90
2022-11-09T06:03:44.289Z,2.25
2022-11-09T06:06:12.907Z,2.28
2022-11-09T06:08:40.077Z,2.10
2022-11-09T06:11:08.683Z,2.50
2022-11-09T06:13:35.979Z,2.70
2022-11-09T06:16:04.557Z,3.13
2022-11-09T06:18:32.593Z,2.50
2022-11-09T06:21:01.304Z,3.00
2022-11-09T06:23:29.457Z,2.65
2022-11-09T06:26:06.432Z,2.78
2022-11-09T06:28:34.656Z,2.70
2022-11-09T06:31:02.462Z,2.75
2022-11-09T06:33:33.571Z,3.65
2022-11-09T06:36:00.768Z,2.20
2022-11-09T06:38:28.075Z,2.53
2022-11-09T06:40:56.459Z,2.67
2022-11-09T06:43:24.124Z,3.17
2022-11-09T06:45:51.702Z,2.28
2022-11-09T06:48:18.829Z,3.63
2022-11-09T06:50:45.976Z,2.42
2022-11-09T06:53:14.080Z,2.90
2022-11-09T06:55:44.488Z,3.15
2022-11-09T06:58:16.417Z,2.70
2022-11-09T07:00:44.099Z,2.75
2022-11-09T07:03:18.311Z,2.88
2022-11-09T07:05:46.005Z,3.97
2022-11-09T07:08:13.729Z,2.58
2022-11-09T07:10:41.255Z,2.60
2022-11-09T07:13:08.948Z,2.60
2022-11-09T07:15:36.907Z,2.70
2022-11-09T07:18:05.343Z,2.47
2022-11-09T07:20:32.832Z,3.47
2022-11-09T07:23:00.098Z,2.88
2022-11-09T07:25:27.645Z,2.40
2022-11-09T07:27:55.119Z,3.63
2022-11-09T07:30:22.320Z,2.90
2022-11-09T07:35:36.659Z,3.35
2022-11-09T07:38:03.873Z,2.80
2022-11-09T07:40:31.446Z,2.25
2022-11-09T07:42:59.859Z,2.53
2022-11-09T07:45:27.292Z,2.42
2022-11-09T07:47:58.332Z,2.67
2022-11-09T07:50:25.854Z,3.03
2022-11-09T07:52:53.108Z,2.35
2022-11-09T07:55:20.253Z,2.78
2022-11-09T07:57:47.544Z,3.00
2022-11-09T08:00:17.718Z,2.25
2022-11-09T08:02:49.743Z,2.78
2022-11-09T08:05:17.176Z,2.30
2022-11-09T08:07:44.308Z,2.65
2022-11-09T08:10:11.514Z,2.92
2022-11-09T08:12:38.688Z,2.53
2022-11-09T08:15:06.681Z,2.40
2022-11-09T08:17:33.876Z,2.40
2022-11-09T08:20:01.039Z,2.92
2022-11-09T08:22:28.221Z,2.92
2022-11-09T08:24:55.368Z,2.97
2022-11-09T08:27:23.427Z,2.92
2022-11-09T08:29:50.572Z,2.15
2022-11-09T08:32:17.765Z,2.70
2022-11-09T08:34:47.515Z,2.35
2022-11-09T08:37:15.087Z,2.63
2022-11-09T08:39:42.404Z,3.03
2022-11-09T08:42:09.651Z,2.53
2022-11-09T08:44:36.849Z,2.55
2022-11-09T08:47:04.247Z,2.83
2022-11-09T08:49:32.411Z,2.90
2022-11-09T08:51:59.584Z,2.72
2022-11-09T08:54:26.746Z,2.08
2022-11-09T08:56:57.315Z,3.03
2022-11-09T08:59:24.517Z,3.22
2022-11-09T09:01:51.761Z,2.80
2022-11-09T09:04:19.049Z,2.60
2022-11-09T09:06:46.236Z,2.92
2022-11-09T09:09:13.490Z,2.42
2022-11-09T09:11:40.619Z,2.97
2022-11-09T09:14:07.770Z,2.60
2022-11-09T09:16:35.147Z,3.22
2022-11-09T09:19:02.547Z,2.53
2022-11-09T09:21:29.680Z,2.75
2022-11-09T09:23:56.837Z,2.42
2022-11-09T09:26:24.007Z,2.83
2022-11-09T09:28:52.024Z,2.72
2022-11-09T09:31:19.275Z,2.50
2022-11-09T09:33:47.667Z,1.98
2022-11-09T09:36:19.249Z,2.95
2022-11-09T09:38:46.418Z,2.50
2022-11-09T09:41:24.651Z,2.25
2022-11-09T09:43:54.308Z,3.00
2022-11-09T09:46:24.276Z,2.63
2022-11-09T09:48:54.373Z,2.42
2022-11-09T09:51:34.497Z,2.45
2022-11-09T09:54:06.432Z,3.67
2022-11-09T09:56:39.617Z,2.88
2022-11-09T09:59:22.099Z,2.60
2022-11-09T10:01:49.555Z,3.45
2022-11-09T10:04:19.561Z,3.15
2022-11-09T10:07:19.273Z,2.63
2022-11-09T10:10:05.370Z,2.50
2022-11-09T10:12:59.124Z,2.42
2022-11-09T10:15:36.455Z,3.00
2022-11-09T10:18:03.717Z,3.17
2022-11-09T10:20:36.256Z,3.03
2022-11-09T10:23:12.202Z,3.13
2022-11-09T10:28:38.004Z,3.20
2022-11-09T10:31:19.482Z,3.00
2022-11-09T10:33:50.028Z,3.25
2022-11-09T10:36:23.997Z,2.85
2022-11-09T10:38:52.184Z,2.97
2022-11-09T10:41:25.136Z,2.42
2022-11-09T10:43:52.274Z,3.05
2022-11-09T10:46:21.311Z,3.40
2022-11-09T10:48:48.452Z,2.95
2022-11-09T10:51:33.675Z,2.20
2022-11-09T10:54:15.235Z,2.55
2022-11-09T10:57:05.359Z,2.80
2022-11-09T10:59:38.989Z,2.95
2022-11-09T11:02:25.410Z,2.75
2022-11-09T11:04:53.508Z,2.53
2022-11-09T11:07:22.213Z,2.72
2022-11-09T11:09:49.421Z,3.08
2022-11-09T11:12:17.826Z,2.72
2022-11-09T11:14:45.608Z,3.17
2022-11-09T11:17:42.700Z,3.15
2022-11-09T11:20:39.221Z,2.70
2022-11-09T11:23:11.435Z,2.50
2022-11-09T11:25:56.543Z,3.22
2022-11-09T11:28:29.768Z,2.88
2022-11-09T11:30:57.244Z,2.67
2022-11-09T11:33:24.590Z,2.83
2022-11-09T11:36:18.056Z,2.53
2022-11-09T11:38:55.971Z,2.20
2022-11-09T11:41:39.820Z,3.00
2022-11-09T11:44:25.764Z,2.42
2022-11-09T11:46:59.882Z,2.70
2022-11-09T11:49:30.117Z,2.30
2022-11-09T11:52:03.208Z,2.50
2022-11-09T11:54:48.910Z,2.70
2022-11-09T11:57:16.079Z,2.15
2022-11-09T11:59:43.250Z,2.78
2022-11-09T12:02:10.628Z,2.53
2022-11-09T12:04:58.442Z,2.45
2022-11-09T12:07:25.798Z,2.08
2022-11-09T12:10:11.496Z,2.35
2022-11-09T12:12:49.699Z,2.33
2022-11-09T12:15:35.480Z,2.45
2022-11-09T12:18:12.481Z,2.38
2022-11-09T12:20:44.217Z,2.35
2022-11-09T12:23:25.264Z,2.42
2022-11-09T12:26:15.471Z,2.63
2022-11-09T12:28:49.975Z,1.90
2022-11-09T12:31:24.807Z,3.80
2022-11-09T12:34:01.194Z,3.13
2022-11-09T12:36:32.671Z,2.83
2022-11-09T12:39:03.052Z,3.13
2022-11-09T12:41:33.715Z,2.50
2022-11-09T12:44:19.373Z,2.90
2022-11-09T12:46:50.798Z,2.20
2022-11-09T12:49:37.324Z,2.75
2022-11-09T12:52:06.157Z,2.15
2022-11-09T12:54:33.508Z,2.35
2022-11-09T12:57:03.546Z,2.03
2022-11-09T12:59:30.776Z,2.13
2022-11-09T13:01:59.286Z,2.70
2022-11-09T13:04:27.343Z,2.53
2022-11-09T13:07:09.668Z,2.47
2022-11-09T13:09:44.799Z,1.90
2022-11-09T13:12:19.336Z,2.13
2022-11-09T13:14:46.805Z,2.28
2022-11-09T13:17:30.951Z,1.73
2022-11-09T13:19:58.172Z,2.30
2022-11-09T13:22:28.441Z,1.67
2022-11-09T13:25:01.504Z,2.00
2022-11-09T13:27:36.266Z,1.85
2022-11-09T13:30:08.557Z,1.75
2022-11-09T13:32:35.772Z,2.10
2022-11-09T13:35:04.406Z,2.63
2022-11-09T13:37:44.820Z,1.90
2022-11-09T13:40:30.730Z,2.15
2022-11-09T13:43:16.262Z,2.22
2022-11-09T13:45:48.372Z,1.98
2022-11-09T13:48:27.860Z,2.20
2022-11-09T13:50:56.686Z,2.50
2022-11-09T13:53:39.327Z,2.53
2022-11-09T13:56:27.448Z,1.95
2022-11-09T13:59:06.747Z,3.00
2022-11-09T14:01:38.273Z,2.90
2022-11-09T14:04:05.912Z,2.28
2022-11-09T14:06:33.659Z,2.10
2022-11-09T14:09:02.001Z,2.10
2022-11-09T14:11:38.410Z,2.50
2022-11-09T14:14:24.921Z,2.45
2022-11-09T14:17:05.080Z,1.75
2022-11-09T14:19:37.992Z,2.45
2022-11-09T14:22:14.579Z,1.85
2022-11-09T14:24:41.897Z,1.88
2022-11-09T14:27:12.077Z,2.08
2022-11-09T14:29:53.116Z,1.88
2022-11-09T14:32:37.169Z,1.60
2022-11-09T14:35:11.912Z,1.60
2022-11-09T14:37:44.010Z,1.60
2022-11-09T14:40:23.160Z,2.08
2022-11-09T14:42:52.460Z,2.15
2022-11-09T14:45:19.822Z,1.85
2022-11-09T14:47:49.074Z,1.88
2022-11-09T14:50:18.420Z,2.05
2022-11-09T14:52:45.865Z,1.85
2022-11-09T14:55:14.553Z,2.50
2022-11-09T14:57:42.015Z,1.90
2022-11-09T15:00:28.014Z,1.80
2022-11-09T15:02:55.936Z,1.80
2022-11-09T15:05:49.079Z,2.00
2022-11-09T15:08:19.668Z,1.92
2022-11-09T15:10:51.367Z,2.10
2022-11-09T15:13:19.493Z,2.03
2022-11-09T15:15:53.479Z,2.03
2022-11-09T15:18:23.717Z,2.60
2022-11-09T15:21:11.350Z,2.33
2022-11-09T15:23:43.629Z,2.30
2022-11-09T15:26:25.900Z,2.05
2022-11-09T15:28:53.062Z,2.03
2022-11-09T15:31:22.667Z,2.38
2022-11-09T15:33:53.563Z,2.75
2022-11-09T15:36:20.972Z,2.22
2022-11-09T15:38:59.436Z,2.67
2022-11-09T15:41:27.225Z,2.10
2022-11-09T15:43:54.477Z,1.88
2022-11-09T15:46:24.024Z,1.75
2022-11-09T15:48:51.679Z,2.15
2022-11-09T15:51:19.786Z,2.58
2022-11-09T15:53:46.984Z,1.95
2022-11-09T15:56:16.772Z,2.78
2022-11-09T15:58:44.040Z,2.50
2022-11-09T16:01:11.590Z,2.63
2022-11-09T16:03:38.835Z,2.13
2022-11-09T16:06:06.092Z,2.38
2022-11-09T16:08:33.319Z,2.33
2022-11-09T16:11:03.785Z,2.40
2022-11-09T16:13:30.977Z,2.60
2022-11-09T16:16:05.135Z,2.30
2022-11-09T16:18:32.773Z,2.40
2022-11-09T16:21:07.832Z,2.78
2022-11-09T16:23:35.598Z,2.38
2022-11-09T16:26:10.709Z,3.20
2022-11-09T16:28:39.812Z,2.20
2022-11-09T16:31:07.732Z,2.20
2022-11-09T16:33:35.072Z,1.95
2022-11-09T16:36:04.611Z,2.28
2022-11-09T16:38:32.947Z,3.10
2022-11-09T16:41:01.443Z,2.45
2022-11-09T16:43:30.371Z,3.00
2022-11-09T16:45:58.459Z,2.38
2022-11-09T16:48:25.989Z,2.55
2022-11-09T16:50:53.738Z,2.80
2022-11-09T16:53:26.572Z,3.28
2022-11-09T16:55:54.228Z,2.78
2022-11-09T16:58:21.888Z,2.80
2022-11-09T17:03:37.928Z,2.90
2022-11-09T17:06:05.208Z,2.72
2022-11-09T17:08:32.385Z,2.50
2022-11-09T17:10:59.747Z,2.42
2022-11-09T17:13:26.908Z,3.03
2022-11-09T17:15:54.116Z,2.83
2022-11-09T17:18:21.544Z,3.10
2022-11-09T17:20:50.372Z,2.67
2022-11-09T17:23:18.851Z,3.03
2022-11-09T17:25:56.301Z,3.08
2022-11-09T17:28:23.691Z,3.33
2022-11-09T17:30:51.386Z,3.00
2022-11-09T17:33:19.013Z,2.63
2022-11-09T17:35:46.632Z,2.50
2022-11-09T17:38:14.160Z,2.65
2022-11-09T17:40:41.375Z,2.75
2022-11-09T17:43:08.595Z,2.83
2022-11-09T17:45:36.590Z,4.15
2022-11-09T17:48:04.568Z,3.42
2022-11-09T17:50:31.881Z,2.97
2022-11-09T17:53:01.516Z,2.90
2022-11-09T17:55:28.707Z,2.50
2022-11-09T17:57:55.981Z,2.25
2022-11-09T18:00:23.464Z,2.95
2022-11-09T18:02:50.619Z,3.03
2022-11-09T18:05:17.781Z,3.90
2022-11-09T18:07:44.948Z,3.00
2022-11-09T18:10:12.195Z,3.08
2022-11-09T18:12:39.325Z,3.00
2022-11-09T18:15:06.598Z,2.70
2022-11-09T18:17:33.743Z,3.75
2022-11-09T18:20:00.937Z,3.15
2022-11-09T18:22:28.098Z,2.97
2022-11-09T18:24:55.323Z,3.42
2022-11-09T18:27:27.443Z,2.97
2022-11-09T18:29:58.036Z,4.05
2022-11-09T18:32:25.201Z,2.70
2022-11-09T18:34:52.322Z,2.88
2022-11-09T18:37:19.533Z,3.53
2022-11-09T18:39:46.783Z,3.90
2022-11-09T18:42:14.039Z,3.25
2022-11-09T18:44:41.305Z,3.78
2022-11-09T18:47:09.692Z,4.00
2022-11-09T18:49:37.191Z,3.40
2022-11-09T18:52:04.487Z,3.63
2022-11-09T18:54:32.471Z,4.15
2022-11-09T18:56:59.630Z,4.18
2022-11-09T18:59:26.790Z,4.05
2022-11-09T19:01:54.086Z,4.22
2022-11-09T19:04:21.275Z,4.03
2022-11-09T19:06:48.673Z,4.20
2022-11-09T19:09:34.517Z,4.95
2022-11-09T19:14:29.421Z,4.32
2022-11-09T19:16:56.668Z,4.35
2022-11-09T19:19:24.662Z,3.90
2022-11-09T19:21:53.595Z,4.85
2022-11-09T19:24:21.811Z,4.75
2022-11-09T19:26:49.824Z,4.93
2022-11-09T19:29:17.503Z,4.65
2022-11-09T19:31:45.324Z,4.45
2022-11-09T19:34:13.247Z,4.03
2022-11-09T19:36:41.655Z,4.60
2022-11-09T19:39:08.833Z,3.58
2022-11-09T19:41:36.284Z,4.43
2022-11-09T19:44:03.554Z,3.80
2022-11-09T19:46:31.480Z,4.32
2022-11-09T19:48:58.941Z,3.65
2022-11-09T19:51:26.209Z,3.83
2022-11-09T19:53:54.525Z,3.85
2022-11-09T19:56:22.906Z,3.67
2022-11-09T19:58:50.988Z,3.65
2022-11-09T20:01:18.648Z,3.60
2022-11-09T20:03:49.843Z,4.30
2022-11-09T20:06:17.513Z,3.38
2022-11-09T20:08:44.647Z,3.55
2022-11-09T20:11:33.085Z,2.83
2022-11-09T20:14:00.789Z,3.60
2022-11-09T20:16:28.332Z,3.03
2022-11-09T20:18:55.658Z,4.53
2022-11-09T20:21:22.847Z,4.88
2022-11-09T20:23:49.967Z,3.55
2022-11-09T20:26:17.191Z,2.97
2022-11-09T20:28:44.343Z,3.50
2022-11-09T20:31:12.852Z,2.55
2022-11-09T20:33:40.067Z,3.05
2022-11-09T20:36:07.513Z,3.15
2022-11-09T20:38:34.835Z,2.90
2022-11-09T20:41:03.179Z,2.60
2022-11-09T20:43:30.619Z,3.03
2022-11-09T20:46:03.102Z,3.17
2022-11-09T20:48:52.809Z,2.78
2022-11-09T20:51:18.575Z,2.95
2022-11-09T20:53:46.649Z,2.75
2022-11-09T20:56:14.563Z,2.83
2022-11-09T20:58:41.974Z,2.33
2022-11-09T21:01:19.761Z,2.95
2022-11-09T21:03:47.908Z,2.80
2022-11-09T21:06:15.792Z,2.70
2022-11-09T21:08:46.398Z,2.90
2022-11-09T21:11:13.859Z,3.20
2022-11-09T21:13:42.091Z,3.20
2022-11-09T21:16:10.427Z,3.13
2022-11-09T21:18:37.599Z,3.22
2022-11-09T21:21:05.944Z,2.70
2022-11-09T21:23:51.932Z,3.60
2022-11-09T21:26:38.156Z,3.35
2022-11-09T21:29:24.286Z,3.22
2022-11-09T21:31:51.456Z,2.97
2022-11-09T21:34:18.682Z,3.45
2022-11-09T21:36:45.966Z,2.95
2022-11-09T21:39:13.166Z,3.30
2022-11-09T21:41:40.589Z,3.35
2022-11-09T21:44:08.333Z,2.78
2022-11-09T21:46:36.211Z,3.03
2022-11-09T21:49:04.099Z,3.53
2022-11-09T21:51:31.616Z,3.08
2022-11-09T21:53:58.945Z,3.08
2022-11-09T21:56:26.196Z,3.20
2022-11-09T21:58:53.698Z,3.25
2022-11-09T22:01:21.497Z,2.78
2022-11-09T22:03:48.927Z,2.60
2022-11-09T22:06:16.391Z,2.42
2022-11-09T22:08:44.730Z,1.92
2022-11-09T22:11:16.208Z,2.45
2022-11-09T22:14:02.490Z,2.20
2022-11-09T22:16:33.693Z,2.45
2022-11-09T22:19:22.612Z,2.40
2022-11-09T22:21:49.806Z,2.47
2022-11-09T22:24:16.994Z,2.63
2022-11-09T22:26:44.235Z,2.10
2022-11-09T22:29:11.481Z,2.20
2022-11-09T22:31:38.684Z,2.10
2022-11-09T22:34:06.203Z,2.17
2022-11-09T22:36:33.363Z,2.78
2022-11-09T22:39:00.647Z,3.10
2022-11-09T22:41:27.854Z,3.42
2022-11-09T22:43:56.584Z,1.90
2022-11-09T22:46:23.870Z,2.58
2022-11-09T22:48:51.144Z,2.72
2022-11-09T22:51:19.503Z,2.40
2022-11-09T22:53:50.575Z,1.90
2022-11-09T22:56:18.500Z,2.33
2022-11-09T22:58:46.160Z,2.20
2022-11-09T23:01:14.923Z,2.15
2022-11-09T23:03:42.739Z,2.95
2022-11-09T23:06:14.376Z,1.98
2022-11-09T23:08:41.572Z,2.40
2022-11-09T23:11:14.018Z,3.38
2022-11-09T23:13:41.538Z,2.38
2022-11-09T23:16:09.430Z,3.10
2022-11-09T23:18:55.625Z,3.08
2022-11-09T23:23:50.643Z,3.05
2022-11-09T23:26:18.059Z,3.50
2022-11-09T23:28:45.298Z,3.10
2022-11-09T23:31:13.859Z,3.22
2022-11-09T23:33:41.178Z,3.30
2022-11-09T23:36:11.394Z,3.58
2022-11-09T23:38:39.627Z,4.03
2022-11-09T23:41:11.164Z,3.15
2022-11-09T23:43:38.602Z,3.65
2022-11-09T23:46:07.569Z,3.53
2022-11-09T23:48:35.188Z,3.78
2022-11-09T23:51:03.247Z,4.50
2022-11-09T23:53:31.477Z,3.85
2022-11-09T23:56:06.890Z,3.47
